sensor_id;sensor_type;location;lat;lon;timestamp;pressure;altitude;pressure_sealevel;temperature;humidity
53932;BME280;39844;52.496;13.482;2023-07-08T00:02:12;101831.78;;;18.68;61.64
53932;BME280;39844;52.496;13.482;2023-07-08T00:04:38;101825.69;;;18.62;61.62
53932;BME280;39844;52.496;13.482;2023-07-08T00:07:05;101830.25;;;18.55;61.12
53932;BME280;39844;52.496;13.482;2023-07-08T00:09:30;101835.66;;;18.49;60.96
53932;BME280;39844;52.496;13.482;2023-07-08T00:11:56;101841.09;;;18.43;61.02
53932;BME280;39844;52.496;13.482;2023-07-08T00:14:21;101834.88;;;18.43;61.72
53932;BME280;39844;52.496;13.482;2023-07-08T00:16:46;101833.13;;;18.42;62.25
53932;BME280;39844;52.496;13.482;2023-07-08T00:19:12;101838.47;;;18.40;62.72
53932;BME280;39844;52.496;13.482;2023-07-08T00:21:37;101832.31;;;18.37;63.41
53932;BME280;39844;52.496;13.482;2023-07-08T00:24:02;101828.91;;;18.30;62.77
53932;BME280;39844;52.496;13.482;2023-07-08T00:26:29;101833.44;;;18.25;63.23
53932;BME280;39844;52.496;13.482;2023-07-08T00:28:56;101831.72;;;18.21;63.68
53932;BME280;39844;52.496;13.482;2023-07-08T00:31:22;101830.03;;;18.17;63.00
53932;BME280;39844;52.496;13.482;2023-07-08T00:33:48;101830.97;;;18.13;62.85
53932;BME280;39844;52.496;13.482;2023-07-08T00:36:14;101827.50;;;18.09;63.18
53932;BME280;39844;52.496;13.482;2023-07-08T00:38:41;101825.78;;;18.05;63.84
53932;BME280;39844;52.496;13.482;2023-07-08T00:41:11;101825.81;;;18.04;64.13
53932;BME280;39844;52.496;13.482;2023-07-08T00:43:48;101826.78;;;18.00;64.33
53932;BME280;39844;52.496;13.482;2023-07-08T00:48:47;101825.09;;;17.94;64.74
53932;BME280;39844;52.496;13.482;2023-07-08T00:51:13;101833.13;;;17.91;64.31
53932;BME280;39844;52.496;13.482;2023-07-08T00:53:39;101828.78;;;17.86;64.59
53932;BME280;39844;52.496;13.482;2023-07-08T00:56:28;101828.78;;;17.86;64.36
53932;BME280;39844;52.496;13.482;2023-07-08T01:01:26;101832.28;;;17.89;63.60
53932;BME280;39844;52.496;13.482;2023-07-08T01:04:06;101826.03;;;17.92;62.57
53932;BME280;39844;52.496;13.482;2023-07-08T01:06:36;101827.72;;;17.96;62.74
53932;BME280;39844;52.496;13.482;2023-07-08T01:09:04;101824.13;;;18.00;62.63
53932;BME280;39844;52.496;13.482;2023-07-08T01:11:29;101834.69;;;18.03;62.47
53932;BME280;39844;52.496;13.482;2023-07-08T01:13:55;101827.59;;;18.05;61.68
53932;BME280;39844;52.496;13.482;2023-07-08T01:16:22;101831.97;;;18.07;62.44
53932;BME280;39844;52.496;13.482;2023-07-08T01:18:48;101824.00;;;18.06;62.64
53932;BME280;39844;52.496;13.482;2023-07-08T01:24:14;101821.47;;;18.00;62.63
53932;BME280;39844;52.496;13.482;2023-07-08T01:26:42;101811.78;;;17.96;62.50
53932;BME280;39844;52.496;13.482;2023-07-08T01:29:08;101806.50;;;17.93;62.83
53932;BME280;39844;52.496;13.482;2023-07-08T01:31:34;101815.41;;;17.92;62.77
53932;BME280;39844;52.496;13.482;2023-07-08T01:34:00;101811.91;;;17.90;62.47
53932;BME280;39844;52.496;13.482;2023-07-08T01:36:29;101812.78;;;17.89;62.54
53932;BME280;39844;52.496;13.482;2023-07-08T01:38:54;101811.91;;;17.90;63.18
53932;BME280;39844;52.496;13.482;2023-07-08T01:41:20;101805.75;;;17.86;62.46
53932;BME280;39844;52.496;13.482;2023-07-08T01:43:45;101807.53;;;17.86;62.03
53932;BME280;39844;52.496;13.482;2023-07-08T01:46:19;101804.88;;;17.86;61.88
53932;BME280;39844;52.496;13.482;2023-07-08T01:48:48;101803.09;;;17.86;62.50
53932;BME280;39844;52.496;13.482;2023-07-08T01:51:15;101803.13;;;17.85;62.66
53932;BME280;39844;52.496;13.482;2023-07-08T01:53:42;101804.06;;;17.82;62.62
53932;BME280;39844;52.496;13.482;2023-07-08T01:56:09;101795.25;;;17.77;62.32
53932;BME280;39844;52.496;13.482;2023-07-08T01:58:35;101802.44;;;17.72;63.21
53932;BME280;39844;52.496;13.482;2023-07-08T02:01:01;101799.91;;;17.64;62.90
53932;BME280;39844;52.496;13.482;2023-07-08T02:03:27;101801.75;;;17.59;62.95
53932;BME280;39844;52.496;13.482;2023-07-08T02:05:53;101798.28;;;17.54;63.27
53932;BME280;39844;52.496;13.482;2023-07-08T02:08:19;101801.88;;;17.50;63.24
53932;BME280;39844;52.496;13.482;2023-07-08T02:10:49;101793.97;;;17.46;64.30
53932;BME280;39844;52.496;13.482;2023-07-08T02:13:14;101804.69;;;17.40;64.04
53932;BME280;39844;52.496;13.482;2023-07-08T02:15:39;101795.09;;;17.31;63.22
53932;BME280;39844;52.496;13.482;2023-07-08T02:18:05;101806.63;;;17.27;63.35
53932;BME280;39844;52.496;13.482;2023-07-08T02:20:30;101798.66;;;17.27;64.14
53932;BME280;39844;52.496;13.482;2023-07-08T02:22:55;101796.94;;;17.26;64.36
53932;BME280;39844;52.496;13.482;2023-07-08T02:25:21;101796.09;;;17.23;64.24
53932;BME280;39844;52.496;13.482;2023-07-08T02:27:46;101799.69;;;17.17;63.92
53932;BME280;39844;52.496;13.482;2023-07-08T02:30:11;101806.81;;;17.14;64.60
53932;BME280;39844;52.496;13.482;2023-07-08T02:32:36;101806.88;;;17.11;64.53
53932;BME280;39844;52.496;13.482;2023-07-08T02:35:05;101804.22;;;17.09;65.50
53932;BME280;39844;52.496;13.482;2023-07-08T02:37:30;101803.38;;;17.07;65.27
53932;BME280;39844;52.496;13.482;2023-07-08T02:39:56;101793.75;;;17.00;64.89
53932;BME280;39844;52.496;13.482;2023-07-08T02:42:21;101804.38;;;16.98;64.71
53932;BME280;39844;52.496;13.482;2023-07-08T02:44:46;101802.63;;;16.97;64.19
53932;BME280;39844;52.496;13.482;2023-07-08T02:47:12;101800.84;;;16.98;64.64
53932;BME280;39844;52.496;13.482;2023-07-08T02:49:37;101801.72;;;16.98;64.35
53932;BME280;39844;52.496;13.482;2023-07-08T02:52:03;101795.53;;;16.99;64.71
53932;BME280;39844;52.496;13.482;2023-07-08T02:54:28;101806.97;;;17.01;65.25
53932;BME280;39844;52.496;13.482;2023-07-08T02:56:53;101807.91;;;16.99;65.14
53932;BME280;39844;52.496;13.482;2023-07-08T02:59:19;101806.16;;;16.98;65.32
53932;BME280;39844;52.496;13.482;2023-07-08T03:01:44;101802.63;;;16.96;65.75
53932;BME280;39844;52.496;13.482;2023-07-08T03:04:10;101796.47;;;16.95;66.07
53932;BME280;39844;52.496;13.482;2023-07-08T03:06:36;101799.97;;;16.96;67.06
53932;BME280;39844;52.496;13.482;2023-07-08T03:09:01;101807.13;;;16.92;67.01
53932;BME280;39844;52.496;13.482;2023-07-08T03:11:26;101798.31;;;16.90;67.14
53932;BME280;39844;52.496;13.482;2023-07-08T03:13:51;101798.28;;;16.92;67.38
53932;BME280;39844;52.496;13.482;2023-07-08T03:16:17;101800.94;;;16.92;67.92
53932;BME280;39844;52.496;13.482;2023-07-08T03:18:42;101797.41;;;16.90;67.55
53932;BME280;39844;52.496;13.482;2023-07-08T03:21:07;101796.53;;;16.89;67.67
53932;BME280;39844;52.496;13.482;2023-07-08T03:23:33;101797.44;;;16.87;67.58
53932;BME280;39844;52.496;13.482;2023-07-08T03:25:58;101794.84;;;16.84;68.09
53932;BME280;39844;52.496;13.482;2023-07-08T03:28:23;101784.25;;;16.82;68.41
53932;BME280;39844;52.496;13.482;2023-07-08T03:30:52;101792.22;;;16.81;68.05
53932;BME280;39844;52.496;13.482;2023-07-08T03:33:17;101795.78;;;16.80;68.37
53932;BME280;39844;52.496;13.482;2023-07-08T03:35:42;101787.84;;;16.77;68.12
53932;BME280;39844;52.496;13.482;2023-07-08T03:38:08;101793.19;;;16.75;67.52
53932;BME280;39844;52.496;13.482;2023-07-08T03:40:33;101785.22;;;16.74;67.60
53932;BME280;39844;52.496;13.482;2023-07-08T03:42:58;101790.53;;;16.74;67.86
53932;BME280;39844;52.496;13.482;2023-07-08T03:45:25;101791.47;;;16.73;67.80
53932;BME280;39844;52.496;13.482;2023-07-08T03:47:51;101777.28;;;16.75;67.62
53932;BME280;39844;52.496;13.482;2023-07-08T03:50:25;101783.41;;;16.79;68.27
53932;BME280;39844;52.496;13.482;2023-07-08T03:52:52;101783.38;;;16.82;68.27
53932;BME280;39844;52.496;13.482;2023-07-08T03:55:18;101782.41;;;16.86;68.01
53932;BME280;39844;52.496;13.482;2023-07-08T03:57:44;101789.50;;;16.87;67.61
53932;BME280;39844;52.496;13.482;2023-07-08T04:00:10;101791.25;;;16.88;67.38
53932;BME280;39844;52.496;13.482;2023-07-08T04:02:35;101795.63;;;16.92;67.79
53932;BME280;39844;52.496;13.482;2023-07-08T04:05:01;101799.09;;;16.97;68.17
53932;BME280;39844;52.496;13.482;2023-07-08T04:07:27;101793.72;;;17.01;68.56
53932;BME280;39844;52.496;13.482;2023-07-08T04:09:54;101798.09;;;17.05;69.26
53932;BME280;39844;52.496;13.482;2023-07-08T04:12:20;101793.63;;;17.09;69.94
53932;BME280;39844;52.496;13.482;2023-07-08T04:14:45;101786.50;;;17.11;70.77
53932;BME280;39844;52.496;13.482;2023-07-08T04:17:11;101786.47;;;17.14;70.90
53932;BME280;39844;52.496;13.482;2023-07-08T04:19:37;101785.59;;;17.15;70.92
53932;BME280;39844;52.496;13.482;2023-07-08T04:22:03;101788.22;;;17.15;71.02
53932;BME280;39844;52.496;13.482;2023-07-08T04:24:28;101789.97;;;17.16;70.38
53932;BME280;39844;52.496;13.482;2023-07-08T04:26:56;101789.94;;;17.19;70.70
53932;BME280;39844;52.496;13.482;2023-07-08T04:29:22;101795.19;;;17.22;70.54
53932;BME280;39844;52.496;13.482;2023-07-08T04:31:48;101795.13;;;17.27;71.26
53932;BME280;39844;52.496;13.482;2023-07-08T04:34:15;101797.75;;;17.31;71.85
53932;BME280;39844;52.496;13.482;2023-07-08T04:36:40;101791.53;;;17.32;71.08
53932;BME280;39844;52.496;13.482;2023-07-08T04:39:07;101798.59;;;17.33;70.40
53932;BME280;39844;52.496;13.482;2023-07-08T04:41:33;101794.97;;;17.37;70.17
53932;BME280;39844;52.496;13.482;2023-07-08T04:43:59;101799.16;;;17.56;70.22
53932;BME280;39844;52.496;13.482;2023-07-08T04:46:31;101797.69;;;17.91;69.37
53932;BME280;39844;52.496;13.482;2023-07-08T04:48:57;101802.59;;;18.15;66.90
53932;BME280;39844;52.496;13.482;2023-07-08T04:51:22;101797.13;;;18.24;65.68
53932;BME280;39844;52.496;13.482;2023-07-08T04:53:47;101800.56;;;18.29;65.57
53932;BME280;39844;52.496;13.482;2023-07-08T04:56:13;101799.56;;;18.35;64.66
53932;BME280;39844;52.496;13.482;2023-07-08T04:58:38;101788.00;;;18.37;65.59
53932;BME280;39844;52.496;13.482;2023-07-08T05:01:03;101793.28;;;18.40;65.19
53932;BME280;39844;52.496;13.482;2023-07-08T05:03:29;101803.91;;;18.40;65.27
53932;BME280;39844;52.496;13.482;2023-07-08T05:05:56;101803.91;;;18.40;65.61
53932;BME280;39844;52.496;13.482;2023-07-08T05:08:21;101808.31;;;18.41;66.23
53932;BME280;39844;52.496;13.482;2023-07-08T05:10:47;101801.16;;;18.45;65.59
53932;BME280;39844;52.496;13.482;2023-07-08T05:13:12;101796.69;;;18.48;65.77
53932;BME280;39844;52.496;13.482;2023-07-08T05:15:37;101791.25;;;18.54;64.89
53932;BME280;39844;52.496;13.482;2023-07-08T05:18:03;101795.56;;;18.60;63.92
53932;BME280;39844;52.496;13.482;2023-07-08T05:20:28;101806.16;;;18.61;63.09
53932;BME280;39844;52.496;13.482;2023-07-08T05:22:53;101800.78;;;18.64;62.34
53932;BME280;39844;52.496;13.482;2023-07-08T05:25:19;101799.75;;;18.71;61.62
53932;BME280;39844;52.496;13.482;2023-07-08T05:27:44;101799.53;;;18.82;61.07
53932;BME280;39844;52.496;13.482;2023-07-08T05:30:14;101791.34;;;18.92;59.70
53932;BME280;39844;52.496;13.482;2023-07-08T05:32:40;101797.31;;;19.04;58.96
53932;BME280;39844;52.496;13.482;2023-07-08T05:35:06;101799.72;;;19.16;59.08
53932;BME280;39844;52.496;13.482;2023-07-08T05:37:31;101802.16;;;19.25;58.80
53932;BME280;39844;52.496;13.482;2023-07-08T05:39:56;101800.13;;;19.36;57.15
53932;BME280;39844;52.496;13.482;2023-07-08T05:42:22;101794.56;;;19.48;56.43
53932;BME280;39844;52.496;13.482;2023-07-08T05:44:48;101792.47;;;19.62;55.63
53932;BME280;39844;52.496;13.482;2023-07-08T05:47:14;101789.44;;;19.76;55.28
53932;BME280;39844;52.496;13.482;2023-07-08T05:49:40;101797.16;;;19.86;55.07
53932;BME280;39844;52.496;13.482;2023-07-08T05:52:05;101794.28;;;19.95;54.40
53932;BME280;39844;52.496;13.482;2023-07-08T05:54:31;101797.59;;;20.05;54.92
53932;BME280;39844;52.496;13.482;2023-07-08T05:56:56;101803.63;;;20.11;55.22
53932;BME280;39844;52.496;13.482;2023-07-08T05:59:21;101805.25;;;20.18;55.02
53932;BME280;39844;52.496;13.482;2023-07-08T06:01:46;101803.34;;;20.22;55.89
53932;BME280;39844;52.496;13.482;2023-07-08T06:04:12;101805.13;;;20.22;56.20
53932;BME280;39844;52.496;13.482;2023-07-08T06:06:37;101814.06;;;20.21;56.65
53932;BME280;39844;52.496;13.482;2023-07-08T06:09:02;101813.13;;;20.22;56.49
53932;BME280;39844;52.496;13.482;2023-07-08T06:11:28;101814.84;;;20.26;56.10
53932;BME280;39844;52.496;13.482;2023-07-08T06:13:53;101813.84;;;20.30;55.94
53932;BME280;39844;52.496;13.482;2023-07-08T06:16:18;101817.25;;;20.35;55.72
53932;BME280;39844;52.496;13.482;2023-07-08T06:18:43;101818.94;;;20.39;56.03
53932;BME280;39844;52.496;13.482;2023-07-08T06:21:09;101808.97;;;20.45;54.39
53932;BME280;39844;52.496;13.482;2023-07-08T06:23:34;101813.09;;;20.57;53.89
53932;BME280;39844;52.496;13.482;2023-07-08T06:25:59;101818.88;;;20.72;53.27
53932;BME280;39844;52.496;13.482;2023-07-08T06:28:24;101815.03;;;20.83;52.94
53932;BME280;39844;52.496;13.482;2023-07-08T06:30:50;101817.59;;;20.87;53.95
53932;BME280;39844;52.496;13.482;2023-07-08T06:33:15;101817.47;;;20.90;54.70
53932;BME280;39844;52.496;13.482;2023-07-08T06:35:41;101828.06;;;20.93;55.20
53932;BME280;39844;52.496;13.482;2023-07-08T06:38:07;101817.38;;;20.93;55.24
53932;BME280;39844;52.496;13.482;2023-07-08T06:40:33;101824.50;;;20.94;55.42
53932;BME280;39844;52.496;13.482;2023-07-08T06:42:59;101819.91;;;20.98;57.13
53932;BME280;39844;52.496;13.482;2023-07-08T06:45:24;101812.84;;;20.97;56.19
53932;BME280;39844;52.496;13.482;2023-07-08T06:47:49;101811.88;;;20.99;55.67
53932;BME280;39844;52.496;13.482;2023-07-08T06:50:15;101805.50;;;21.03;55.24
53932;BME280;39844;52.496;13.482;2023-07-08T06:52:40;101800.94;;;21.08;54.96
53932;BME280;39844;52.496;13.482;2023-07-08T06:55:08;101806.13;;;21.14;55.05
53932;BME280;39844;52.496;13.482;2023-07-08T06:57:34;101803.25;;;21.20;54.60
53932;BME280;39844;52.496;13.482;2023-07-08T07:00:00;101801.41;;;21.22;54.25
53932;BME280;39844;52.496;13.482;2023-07-08T07:02:26;101809.34;;;21.25;54.32
53932;BME280;39844;52.496;13.482;2023-07-08T07:04:51;101804.75;;;21.29;54.66
53932;BME280;39844;52.496;13.482;2023-07-08T07:07:17;101810.84;;;21.34;54.07
53932;BME280;39844;52.496;13.482;2023-07-08T07:09:42;101806.28;;;21.37;53.88
53932;BME280;39844;52.496;13.482;2023-07-08T07:12:08;101803.31;;;21.47;53.56
53932;BME280;39844;52.496;13.482;2023-07-08T07:14:33;101800.38;;;21.56;53.66
53932;BME280;39844;52.496;13.482;2023-07-08T07:16:59;101806.22;;;21.67;55.51
53932;BME280;39844;52.496;13.482;2023-07-08T07:19:24;101809.53;;;21.75;55.79
53932;BME280;39844;52.496;13.482;2023-07-08T07:21:50;101814.63;;;21.82;53.91
53932;BME280;39844;52.496;13.482;2023-07-08T07:24:18;101808.84;;;21.96;52.04
53932;BME280;39844;52.496;13.482;2023-07-08T07:26:43;101802.31;;;22.04;51.62
53932;BME280;39844;52.496;13.482;2023-07-08T07:29:09;101802.00;;;22.14;51.33
53932;BME280;39844;52.496;13.482;2023-07-08T07:31:34;101808.69;;;22.27;51.22
53932;BME280;39844;52.496;13.482;2023-07-08T07:34:00;101812.72;;;22.38;51.47
53932;BME280;39844;52.496;13.482;2023-07-08T07:36:26;101804.25;;;22.50;50.46
53932;BME280;39844;52.496;13.482;2023-07-08T07:38:51;101801.25;;;22.59;50.37
53932;BME280;39844;52.496;13.482;2023-07-08T07:41:17;101797.44;;;22.67;50.58
53932;BME280;39844;52.496;13.482;2023-07-08T07:43:42;101794.31;;;22.79;50.64
53932;BME280;39844;52.496;13.482;2023-07-08T07:46:07;101795.72;;;22.89;49.21
53932;BME280;39844;52.496;13.482;2023-07-08T07:48:33;101783.78;;;22.97;49.04
53932;BME280;39844;52.496;13.482;2023-07-08T07:50:59;101791.59;;;23.03;49.50
53932;BME280;39844;52.496;13.482;2023-07-08T07:53:24;101796.69;;;23.09;49.20
53932;BME280;39844;52.496;13.482;2023-07-08T07:56:00;101797.22;;;23.19;48.20
53932;BME280;39844;52.496;13.482;2023-07-08T07:58:26;101796.06;;;23.26;47.34
53932;BME280;39844;52.496;13.482;2023-07-08T08:00:52;101792.13;;;23.35;47.85
53932;BME280;39844;52.496;13.482;2023-07-08T08:03:17;101790.06;;;23.43;48.02
53932;BME280;39844;52.496;13.482;2023-07-08T08:05:42;101790.63;;;23.51;46.93
53932;BME280;39844;52.496;13.482;2023-07-08T08:08:08;101792.06;;;23.59;47.66
53932;BME280;39844;52.496;13.482;2023-07-08T08:10:35;101795.47;;;23.63;47.76
53932;BME280;39844;52.496;13.482;2023-07-08T08:13:01;101793.16;;;23.75;46.89
53932;BME280;39844;52.496;13.482;2023-07-08T08:15:26;101798.97;;;23.86;47.96
53932;BME280;39844;52.496;13.482;2023-07-08T08:17:52;101799.66;;;23.92;47.37
53932;BME280;39844;52.496;13.482;2023-07-08T08:20:19;101801.25;;;23.96;46.31
53932;BME280;39844;52.496;13.482;2023-07-08T08:22:45;101803.72;;;24.00;46.06
53932;BME280;39844;52.496;13.482;2023-07-08T08:25:10;101804.38;;;24.07;45.95
53932;BME280;39844;52.496;13.482;2023-07-08T08:27:36;101804.16;;;24.13;46.11
53932;BME280;39844;52.496;13.482;2023-07-08T08:30:01;101799.25;;;24.22;46.09
53932;BME280;39844;52.496;13.482;2023-07-08T08:32:26;101795.28;;;24.31;45.19
53932;BME280;39844;52.496;13.482;2023-07-08T08:34:52;101802.16;;;24.38;45.44
53932;BME280;39844;52.496;13.482;2023-07-08T08:37:17;101796.47;;;24.44;44.54
53932;BME280;39844;52.496;13.482;2023-07-08T08:39:45;101806.16;;;24.48;44.87
53932;BME280;39844;52.496;13.482;2023-07-08T08:42:26;101800.44;;;24.56;45.14
53932;BME280;39844;52.496;13.482;2023-07-08T08:44:52;101803.72;;;24.62;45.39
53932;BME280;39844;52.496;13.482;2023-07-08T08:47:37;101798.97;;;24.69;45.12
53932;BME280;39844;52.496;13.482;2023-07-08T08:52:55;101806.41;;;24.82;43.39
53932;BME280;39844;52.496;13.482;2023-07-08T08:55:22;101800.91;;;24.85;43.68
53932;BME280;39844;52.496;13.482;2023-07-08T09:00:56;101794.03;;;24.98;43.29
53932;BME280;39844;52.496;13.482;2023-07-08T09:06:12;101798.44;;;25.18;41.50
53932;BME280;39844;52.496;13.482;2023-07-08T09:08:38;101800.78;;;25.26;41.13
53932;BME280;39844;52.496;13.482;2023-07-08T09:11:13;101789.75;;;25.32;41.19
53932;BME280;39844;52.496;13.482;2023-07-08T09:13:40;101790.03;;;25.44;41.83
53932;BME280;39844;52.496;13.482;2023-07-08T09:19:09;101781.66;;;25.86;39.10
53932;BME280;39844;52.496;13.482;2023-07-08T09:21:51;101774.25;;;26.08;36.09
53932;BME280;39844;52.496;13.482;2023-07-08T09:24:56;101778.94;;;26.22;35.15
53932;BME280;39844;52.496;13.482;2023-07-08T09:27:23;101784.38;;;26.38;34.54
53932;BME280;39844;52.496;13.482;2023-07-08T09:29:48;101786.91;;;26.58;35.03
53932;BME280;39844;52.496;13.482;2023-07-08T09:32:19;101780.91;;;26.85;35.31
53932;BME280;39844;52.496;13.482;2023-07-08T09:35:05;101780.63;;;27.23;35.29
53932;BME280;39844;52.496;13.482;2023-07-08T09:37:36;101777.88;;;27.55;32.92
53932;BME280;39844;52.496;13.482;2023-07-08T09:40:22;101793.28;;;27.99;32.95
53932;BME280;39844;52.496;13.482;2023-07-08T09:42:52;101771.63;;;28.44;32.26
53932;BME280;39844;52.496;13.482;2023-07-08T09:45:24;101764.13;;;28.92;32.47
53932;BME280;39844;52.496;13.482;2023-07-08T09:47:55;101777.03;;;29.43;31.82
53932;BME280;39844;52.496;13.482;2023-07-08T09:50:26;101769.56;;;29.87;30.98
53932;BME280;39844;52.496;13.482;2023-07-08T09:52:54;101772.59;;;30.35;29.94
53932;BME280;39844;52.496;13.482;2023-07-08T09:55:20;101768.25;;;30.95;29.77
53932;BME280;39844;52.496;13.482;2023-07-08T09:57:47;101770.50;;;31.38;30.09
53932;BME280;39844;52.496;13.482;2023-07-08T10:00:15;101765.81;;;31.76;29.79
53932;BME280;39844;52.496;13.482;2023-07-08T10:05:27;101763.16;;;31.87;26.63
53932;BME280;39844;52.496;13.482;2023-07-08T10:07:55;101754.91;;;32.23;27.70
53932;BME280;39844;52.496;13.482;2023-07-08T10:10:33;101758.56;;;32.57;28.14
53932;BME280;39844;52.496;13.482;2023-07-08T10:13:02;101761.19;;;32.70;25.80
53932;BME280;39844;52.496;13.482;2023-07-08T10:15:32;101750.81;;;32.97;25.53
53932;BME280;39844;52.496;13.482;2023-07-08T10:17:59;101754.47;;;33.40;23.94
53932;BME280;39844;52.496;13.482;2023-07-08T10:20:29;101747.03;;;33.85;24.68
53932;BME280;39844;52.496;13.482;2023-07-08T10:23:38;101748.00;;;34.16;24.25
53932;BME280;39844;52.496;13.482;2023-07-08T10:26:33;101744.47;;;34.25;23.13
53932;BME280;39844;52.496;13.482;2023-07-08T10:31:56;101739.19;;;34.74;22.80
53932;BME280;39844;52.496;13.482;2023-07-08T10:34:47;101744.16;;;35.00;23.47
53932;BME280;39844;52.496;13.482;2023-07-08T10:56:53;101741.16;;;36.48;20.74
53932;BME280;39844;52.496;13.482;2023-07-08T10:59:25;101725.22;;;36.70;21.29
53932;BME280;39844;52.496;13.482;2023-07-08T11:02:08;101730.88;;;36.96;22.09
53932;BME280;39844;52.496;13.482;2023-07-08T11:10:51;101720.00;;;37.31;20.29
53932;BME280;39844;52.496;13.482;2023-07-08T11:13:20;101721.22;;;37.47;20.84
53932;BME280;39844;52.496;13.482;2023-07-08T11:15:52;101714.16;;;37.62;20.16
53932;BME280;39844;52.496;13.482;2023-07-08T11:19:02;101715.41;;;37.67;20.26
53932;BME280;39844;52.496;13.482;2023-07-08T11:21:36;101716.13;;;37.87;20.64
53932;BME280;39844;52.496;13.482;2023-07-08T11:24:11;101710.69;;;38.13;21.24
53932;BME280;39844;52.496;13.482;2023-07-08T11:26:47;101713.03;;;38.08;19.52
53932;BME280;39844;52.496;13.482;2023-07-08T11:29:21;101708.94;;;37.86;19.67
53932;BME280;39844;52.496;13.482;2023-07-08T11:31:48;101711.81;;;37.67;20.34
53932;BME280;39844;52.496;13.482;2023-07-08T11:34:15;101704.56;;;37.83;20.29
53932;BME280;39844;52.496;13.482;2023-07-08T11:36:42;101699.56;;;37.96;20.03
53932;BME280;39844;52.496;13.482;2023-07-08T11:39:31;101693.25;;;37.96;19.38
53932;BME280;39844;52.496;13.482;2023-07-08T11:42:16;101698.88;;;37.94;20.30
53932;BME280;39844;52.496;13.482;2023-07-08T11:44:44;101691.44;;;37.87;19.90
53932;BME280;39844;52.496;13.482;2023-07-08T11:47:41;101686.81;;;37.70;17.53
53932;BME280;39844;52.496;13.482;2023-07-08T11:53:01;101690.88;;;37.66;19.70
53932;BME280;39844;52.496;13.482;2023-07-08T11:55:37;101680.53;;;37.95;20.39
53932;BME280;39844;52.496;13.482;2023-07-08T11:58:07;101674.31;;;38.11;18.84
53932;BME280;39844;52.496;13.482;2023-07-08T12:00:34;101673.34;;;38.20;18.88
53932;BME280;39844;52.496;13.482;2023-07-08T12:03:16;101669.41;;;38.22;20.96
53932;BME280;39844;52.496;13.482;2023-07-08T12:05:44;101677.25;;;38.17;19.67
53932;BME280;39844;52.496;13.482;2023-07-08T12:08:17;101674.75;;;37.98;20.47
53932;BME280;39844;52.496;13.482;2023-07-08T12:10:47;101670.50;;;38.04;18.98
53932;BME280;39844;52.496;13.482;2023-07-08T12:13:15;101666.97;;;38.11;19.49
53932;BME280;39844;52.496;13.482;2023-07-08T12:15:41;101663.53;;;38.17;20.05
53932;BME280;39844;52.496;13.482;2023-07-08T12:18:20;101664.22;;;38.11;20.80
53932;BME280;39844;52.496;13.482;2023-07-08T12:20:54;101665.91;;;38.12;19.94
53932;BME280;39844;52.496;13.482;2023-07-08T12:23:22;101666.22;;;38.09;20.17
53932;BME280;39844;52.496;13.482;2023-07-08T12:25:48;101664.84;;;38.05;20.91
53932;BME280;39844;52.496;13.482;2023-07-08T12:28:14;101660.97;;;38.16;19.31
53932;BME280;39844;52.496;13.482;2023-07-08T12:30:42;101655.50;;;38.16;18.79
53932;BME280;39844;52.496;13.482;2023-07-08T12:33:13;101653.56;;;38.08;18.43
53932;BME280;39844;52.496;13.482;2023-07-08T12:35:39;101654.88;;;38.04;20.27
53932;BME280;39844;52.496;13.482;2023-07-08T12:38:27;101663.31;;;37.85;19.50
53932;BME280;39844;52.496;13.482;2023-07-08T12:40:53;101648.16;;;37.81;19.88
53932;BME280;39844;52.496;13.482;2023-07-08T12:43:18;101648.91;;;37.83;19.85
53932;BME280;39844;52.496;13.482;2023-07-08T12:45:44;101641.50;;;37.58;19.80
53932;BME280;39844;52.496;13.482;2023-07-08T12:48:09;101640.78;;;37.56;18.78
53932;BME280;39844;52.496;13.482;2023-07-08T12:50:35;101635.84;;;37.59;20.30
53932;BME280;39844;52.496;13.482;2023-07-08T12:53:00;101634.75;;;37.52;18.98
53932;BME280;39844;52.496;13.482;2023-07-08T12:55:26;101640.88;;;37.46;18.55
53932;BME280;39844;52.496;13.482;2023-07-08T12:57:52;101628.72;;;37.49;19.62
53932;BME280;39844;52.496;13.482;2023-07-08T13:00:30;101634.22;;;37.49;20.23
53932;BME280;39844;52.496;13.482;2023-07-08T13:03:00;101636.31;;;37.37;20.17
53932;BME280;39844;52.496;13.482;2023-07-08T13:05:27;101640.28;;;37.07;18.93
53932;BME280;39844;52.496;13.482;2023-07-08T13:07:53;101640.09;;;36.91;20.02
53932;BME280;39844;52.496;13.482;2023-07-08T13:10:23;101634.91;;;36.88;20.04
53932;BME280;39844;52.496;13.482;2023-07-08T13:12:54;101630.13;;;36.90;19.53
53932;BME280;39844;52.496;13.482;2023-07-08T13:15:28;101626.19;;;37.02;20.24
53932;BME280;39844;52.496;13.482;2023-07-08T13:17:55;101633.19;;;37.14;20.71
53932;BME280;39844;52.496;13.482;2023-07-08T13:20:21;101628.88;;;37.29;21.02
53932;BME280;39844;52.496;13.482;2023-07-08T13:22:53;101625.91;;;37.41;20.99
53932;BME280;39844;52.496;13.482;2023-07-08T13:25:20;101617.44;;;37.52;20.52
53932;BME280;39844;52.496;13.482;2023-07-08T13:28:15;101622.53;;;37.29;19.26
53932;BME280;39844;52.496;13.482;2023-07-08T13:30:59;101615.34;;;36.83;19.59
53932;BME280;39844;52.496;13.482;2023-07-08T13:33:30;101616.38;;;36.55;20.60
53932;BME280;39844;52.496;13.482;2023-07-08T13:35:55;101616.75;;;36.33;19.70
53932;BME280;39844;52.496;13.482;2023-07-08T13:38:23;101626.53;;;36.35;20.52
53932;BME280;39844;52.496;13.482;2023-07-08T13:40:57;101619.88;;;36.38;21.34